sensor_id;sensor_type;location;lat;lon;timestamp;temperature;humidity
32839;DHT22;19182;41.820;12.808;2023-11-22T00:00:09;12.10;99.90
32839;DHT22;19182;41.820;12.808;2023-11-22T00:02:35;12.10;99.90
32839;DHT22;19182;41.820;12.808;2023-11-22T00:05:01;12.10;99.90
32839;DHT22;19182;41.820;12.808;2023-11-22T00:07:28;12.20;99.90
32839;DHT22;19182;41.820;12.808;2023-11-22T00:09:54;12.20;99.90
32839;DHT22;19182;41.820;12.808;2023-11-22T00:12:21;12.30;99.90
32839;DHT22;19182;41.820;12.808;2023-11-22T00:14:48;12.30;99.90
32839;DHT22;19182;41.820;12.808;2023-11-22T00:17:14;12.10;99.90
32839;DHT22;19182;41.820;12.808;2023-11-22T00:19:45;12.10;99.90
32839;DHT22;19182;41.820;12.808;2023-11-22T00:22:11;12.10;99.90
32839;DHT22;19182;41.820;12.808;2023-11-22T00:24:40;12.10;99.90
32839;DHT22;19182;41.820;12.808;2023-11-22T00:27:09;12.20;99.90
32839;DHT22;19182;41.820;12.808;2023-11-22T00:29:35;12.20;99.90
32839;DHT22;19182;41.820;12.808;2023-11-22T00:32:02;12.20;99.90
32839;DHT22;19182;41.820;12.808;2023-11-22T00:34:28;12.20;99.90
32839;DHT22;19182;41.820;12.808;2023-11-22T00:36:53;12.20;99.90
32839;DHT22;19182;41.820;12.808;2023-11-22T00:39:19;12.20;99.90
32839;DHT22;19182;41.820;12.808;2023-11-22T00:41:45;12.10;99.90
32839;DHT22;19182;41.820;12.808;2023-11-22T00:44:12;12.10;99.90
32839;DHT22;19182;41.820;12.808;2023-11-22T00:46:37;12.00;99.90
32839;DHT22;19182;41.820;12.808;2023-11-22T00:49:03;12.00;99.90
32839;DHT22;19182;41.820;12.808;2023-11-22T00:51:30;11.90;99.90
32839;DHT22;19182;41.820;12.808;2023-11-22T00:53:57;11.90;99.90
32839;DHT22;19182;41.820;12.808;2023-11-22T00:56:23;11.90;99.90
32839;DHT22;19182;41.820;12.808;2023-11-22T00:58:49;12.00;99.90
32839;DHT22;19182;41.820;12.808;2023-11-22T01:01:15;11.90;99.90
32839;DHT22;19182;41.820;12.808;2023-11-22T01:03:44;11.90;99.90
32839;DHT22;19182;41.820;12.808;2023-11-22T01:06:09;11.90;99.90
32839;DHT22;19182;41.820;12.808;2023-11-22T01:08:35;11.80;99.90
32839;DHT22;19182;41.820;12.808;2023-11-22T01:11:03;11.80;99.90
32839;DHT22;19182;41.820;12.808;2023-11-22T01:13:29;11.90;99.90
32839;DHT22;19182;41.820;12.808;2023-11-22T01:15:54;11.90;99.90
32839;DHT22;19182;41.820;12.808;2023-11-22T01:18:20;11.90;99.90
32839;DHT22;19182;41.820;12.808;2023-11-22T01:20:49;11.90;99.90
32839;DHT22;19182;41.820;12.808;2023-11-22T01:23:14;12.00;99.90
32839;DHT22;19182;41.820;12.808;2023-11-22T01:25:40;11.90;99.90
32839;DHT22;19182;41.820;12.808;2023-11-22T01:28:06;11.90;99.90
32839;DHT22;19182;41.820;12.808;2023-11-22T01:30:32;11.90;99.90
32839;DHT22;19182;41.820;12.808;2023-11-22T01:32:58;11.90;99.90
32839;DHT22;19182;41.820;12.808;2023-11-22T01:35:24;11.90;99.90
32839;DHT22;19182;41.820;12.808;2023-11-22T01:37:50;11.80;99.90
32839;DHT22;19182;41.820;12.808;2023-11-22T01:40:17;11.70;99.90
32839;DHT22;19182;41.820;12.808;2023-11-22T01:42:44;11.70;99.90
32839;DHT22;19182;41.820;12.808;2023-11-22T01:45:11;11.80;99.90
32839;DHT22;19182;41.820;12.808;2023-11-22T01:47:37;11.80;99.90
32839;DHT22;19182;41.820;12.808;2023-11-22T01:50:04;11.80;99.90
32839;DHT22;19182;41.820;12.808;2023-11-22T01:52:32;11.80;99.90
32839;DHT22;19182;41.820;12.808;2023-11-22T01:54:57;11.70;99.90
32839;DHT22;19182;41.820;12.808;2023-11-22T01:57:23;11.70;99.90
32839;DHT22;19182;41.820;12.808;2023-11-22T01:59:49;11.60;99.90
32839;DHT22;19182;41.820;12.808;2023-11-22T02:02:14;11.60;99.90
32839;DHT22;19182;41.820;12.808;2023-11-22T02:04:40;11.60;99.90
32839;DHT22;19182;41.820;12.808;2023-11-22T02:07:05;11.70;99.90
32839;DHT22;19182;41.820;12.808;2023-11-22T02:09:31;11.60;99.90
32839;DHT22;19182;41.820;12.808;2023-11-22T02:11:57;11.60;99.90
32839;DHT22;19182;41.820;12.808;2023-11-22T02:14:23;11.60;99.90
32839;DHT22;19182;41.820;12.808;2023-11-22T02:16:48;11.60;99.90
32839;DHT22;19182;41.820;12.808;2023-11-22T02:19:16;11.60;99.90
32839;DHT22;19182;41.820;12.808;2023-11-22T02:21:42;11.60;99.90
32839;DHT22;19182;41.820;12.808;2023-11-22T02:24:08;11.60;99.90
32839;DHT22;19182;41.820;12.808;2023-11-22T02:26:35;11.60;99.90
32839;DHT22;19182;41.820;12.808;2023-11-22T02:29:02;11.60;99.90
32839;DHT22;19182;41.820;12.808;2023-11-22T02:31:29;11.60;99.90
32839;DHT22;19182;41.820;12.808;2023-11-22T02:33:55;11.60;99.90
32839;DHT22;19182;41.820;12.808;2023-11-22T02:36:22;11.50;99.90
32839;DHT22;19182;41.820;12.808;2023-11-22T02:38:48;11.50;99.90
32839;DHT22;19182;41.820;12.808;2023-11-22T02:41:13;11.50;99.90
32839;DHT22;19182;41.820;12.808;2023-11-22T02:43:39;11.50;99.90
32839;DHT22;19182;41.820;12.808;2023-11-22T02:46:08;11.50;99.90
32839;DHT22;19182;41.820;12.808;2023-11-22T02:48:33;11.40;99.90
32839;DHT22;19182;41.820;12.808;2023-11-22T02:50:59;11.40;99.90
32839;DHT22;19182;41.820;12.808;2023-11-22T02:53:27;11.30;99.90
32839;DHT22;19182;41.820;12.808;2023-11-22T02:55:55;11.30;99.90
32839;DHT22;19182;41.820;12.808;2023-11-22T02:58:24;11.30;99.90
32839;DHT22;19182;41.820;12.808;2023-11-22T03:00:49;11.20;99.90
32839;DHT22;19182;41.820;12.808;2023-11-22T03:03:15;11.20;99.90
32839;DHT22;19182;41.820;12.808;2023-11-22T03:05:41;11.20;99.90
32839;DHT22;19182;41.820;12.808;2023-11-22T03:08:06;11.20;99.90
32839;DHT22;19182;41.820;12.808;2023-11-22T03:10:37;11.20;99.90
32839;DHT22;19182;41.820;12.808;2023-11-22T03:13:02;11.30;99.90
32839;DHT22;19182;41.820;12.808;2023-11-22T03:15:29;11.30;99.90
32839;DHT22;19182;41.820;12.808;2023-11-22T03:17:55;11.20;99.90
32839;DHT22;19182;41.820;12.808;2023-11-22T03:20:21;11.30;99.90
32839;DHT22;19182;41.820;12.808;2023-11-22T03:22:46;11.30;99.90
32839;DHT22;19182;41.820;12.808;2023-11-22T03:25:16;11.30;99.90
32839;DHT22;19182;41.820;12.808;2023-11-22T03:27:43;11.40;99.90
32839;DHT22;19182;41.820;12.808;2023-11-22T03:30:09;11.40;99.90
32839;DHT22;19182;41.820;12.808;2023-11-22T03:32:39;11.40;99.90
32839;DHT22;19182;41.820;12.808;2023-11-22T03:35:06;11.30;99.90
32839;DHT22;19182;41.820;12.808;2023-11-22T03:37:33;11.30;99.90
32839;DHT22;19182;41.820;12.808;2023-11-22T03:39:59;11.30;99.90
32839;DHT22;19182;41.820;12.808;2023-11-22T03:42:24;11.40;99.90
32839;DHT22;19182;41.820;12.808;2023-11-22T03:44:51;11.30;99.90
32839;DHT22;19182;41.820;12.808;2023-11-22T03:47:16;11.30;99.90
32839;DHT22;19182;41.820;12.808;2023-11-22T03:49:42;11.20;99.90
32839;DHT22;19182;41.820;12.808;2023-11-22T03:52:13;11.20;99.90
32839;DHT22;19182;41.820;12.808;2023-11-22T03:54:42;11.20;99.90
32839;DHT22;19182;41.820;12.808;2023-11-22T03:57:07;11.10;99.90
32839;DHT22;19182;41.820;12.808;2023-11-22T03:59:36;11.10;99.90
32839;DHT22;19182;41.820;12.808;2023-11-22T04:02:01;11.10;99.90
32839;DHT22;19182;41.820;12.808;2023-11-22T04:04:27;11.00;99.90
32839;DHT22;19182;41.820;12.808;2023-11-22T04:06:53;11.00;99.90
32839;DHT22;19182;41.820;12.808;2023-11-22T04:09:18;10.90;99.90
32839;DHT22;19182;41.820;12.808;2023-11-22T04:11:45;10.90;99.90
32839;DHT22;19182;41.820;12.808;2023-11-22T04:14:12;10.70;99.90
32839;DHT22;19182;41.820;12.808;2023-11-22T04:16:38;10.80;99.90
32839;DHT22;19182;41.820;12.808;2023-11-22T04:19:03;12.30;99.90
32839;DHT22;19182;41.820;12.808;2023-11-22T04:21:29;10.70;99.90
32839;DHT22;19182;41.820;12.808;2023-11-22T04:23:54;10.60;99.90
32839;DHT22;19182;41.820;12.808;2023-11-22T04:26:20;10.50;99.90
32839;DHT22;19182;41.820;12.808;2023-11-22T04:28:46;10.50;99.90
32839;DHT22;19182;41.820;12.808;2023-11-22T04:31:13;10.50;99.90
32839;DHT22;19182;41.820;12.808;2023-11-22T04:33:38;10.80;99.90
32839;DHT22;19182;41.820;12.808;2023-11-22T04:36:04;10.50;99.90
32839;DHT22;19182;41.820;12.808;2023-11-22T04:38:31;10.60;99.90
32839;DHT22;19182;41.820;12.808;2023-11-22T04:40:57;10.50;99.90
32839;DHT22;19182;41.820;12.808;2023-11-22T04:43:22;10.40;99.90
32839;DHT22;19182;41.820;12.808;2023-11-22T04:45:48;10.40;99.90
32839;DHT22;19182;41.820;12.808;2023-11-22T04:48:15;10.40;99.90
32839;DHT22;19182;41.820;12.808;2023-11-22T04:50:41;10.30;99.90
32839;DHT22;19182;41.820;12.808;2023-11-22T04:53:08;10.40;99.90
32839;DHT22;19182;41.820;12.808;2023-11-22T04:55:33;10.30;99.90
32839;DHT22;19182;41.820;12.808;2023-11-22T04:57:59;10.30;99.90
32839;DHT22;19182;41.820;12.808;2023-11-22T05:00:25;10.30;99.90
32839;DHT22;19182;41.820;12.808;2023-11-22T05:02:51;10.40;99.90
32839;DHT22;19182;41.820;12.808;2023-11-22T05:05:16;10.30;99.90
32839;DHT22;19182;41.820;12.808;2023-11-22T05:07:42;10.50;99.90
32839;DHT22;19182;41.820;12.808;2023-11-22T05:10:09;10.20;99.90
32839;DHT22;19182;41.820;12.808;2023-11-22T05:12:35;10.10;99.90
32839;DHT22;19182;41.820;12.808;2023-11-22T05:15:01;10.00;99.90
32839;DHT22;19182;41.820;12.808;2023-11-22T05:17:27;10.00;99.90
32839;DHT22;19182;41.820;12.808;2023-11-22T05:19:52;9.90;99.90
32839;DHT22;19182;41.820;12.808;2023-11-22T05:22:19;9.80;99.90
32839;DHT22;19182;41.820;12.808;2023-11-22T05:24:44;9.80;99.90
32839;DHT22;19182;41.820;12.808;2023-11-22T05:27:10;9.70;99.90
32839;DHT22;19182;41.820;12.808;2023-11-22T05:29:36;9.60;99.90
32839;DHT22;19182;41.820;12.808;2023-11-22T05:32:02;9.60;99.90
32839;DHT22;19182;41.820;12.808;2023-11-22T05:34:31;9.60;99.90
32839;DHT22;19182;41.820;12.808;2023-11-22T05:36:57;9.70;99.90
32839;DHT22;19182;41.820;12.808;2023-11-22T05:39:23;9.60;99.90
32839;DHT22;19182;41.820;12.808;2023-11-22T05:41:50;9.60;99.90
32839;DHT22;19182;41.820;12.808;2023-11-22T05:44:17;9.40;99.90
32839;DHT22;19182;41.820;12.808;2023-11-22T05:46:44;9.30;99.90
32839;DHT22;19182;41.820;12.808;2023-11-22T05:49:10;9.10;99.90
32839;DHT22;19182;41.820;12.808;2023-11-22T05:51:36;8.90;99.90
32839;DHT22;19182;41.820;12.808;2023-11-22T05:54:02;8.80;99.90
32839;DHT22;19182;41.820;12.808;2023-11-22T05:56:28;8.90;99.90
32839;DHT22;19182;41.820;12.808;2023-11-22T05:58:56;9.00;99.90
32839;DHT22;19182;41.820;12.808;2023-11-22T06:01:22;9.10;99.90
32839;DHT22;19182;41.820;12.808;2023-11-22T06:03:50;9.00;99.90
32839;DHT22;19182;41.820;12.808;2023-11-22T06:06:17;9.00;99.90
32839;DHT22;19182;41.820;12.808;2023-11-22T06:08:43;8.90;99.90
32839;DHT22;19182;41.820;12.808;2023-11-22T06:11:09;8.90;99.90
32839;DHT22;19182;41.820;12.808;2023-11-22T06:13:39;9.00;99.90
32839;DHT22;19182;41.820;12.808;2023-11-22T06:16:04;8.90;99.90
32839;DHT22;19182;41.820;12.808;2023-11-22T06:18:31;8.90;99.90
32839;DHT22;19182;41.820;12.808;2023-11-22T06:20:58;8.90;99.90
32839;DHT22;19182;41.820;12.808;2023-11-22T06:23:24;8.90;99.90
32839;DHT22;19182;41.820;12.808;2023-11-22T06:25:49;8.90;99.90
32839;DHT22;19182;41.820;12.808;2023-11-22T06:28:16;8.90;99.90
32839;DHT22;19182;41.820;12.808;2023-11-22T06:30:41;9.00;99.90
32839;DHT22;19182;41.820;12.808;2023-11-22T06:33:07;9.00;99.90
32839;DHT22;19182;41.820;12.808;2023-11-22T06:35:33;8.90;99.90
32839;DHT22;19182;41.820;12.808;2023-11-22T06:37:58;9.00;99.90
32839;DHT22;19182;41.820;12.808;2023-11-22T06:40:24;9.00;99.90
32839;DHT22;19182;41.820;12.808;2023-11-22T06:42:50;9.00;99.90
32839;DHT22;19182;41.820;12.808;2023-11-22T06:45:16;9.10;99.90
32839;DHT22;19182;41.820;12.808;2023-11-22T06:47:42;9.10;99.90
32839;DHT22;19182;41.820;12.808;2023-11-22T06:50:08;9.10;99.90
32839;DHT22;19182;41.820;12.808;2023-11-22T06:52:35;9.00;99.90
32839;DHT22;19182;41.820;12.808;2023-11-22T06:55:01;9.10;99.90
32839;DHT22;19182;41.820;12.808;2023-11-22T06:57:27;9.00;99.90
32839;DHT22;19182;41.820;12.808;2023-11-22T06:59:55;9.10;99.90
32839;DHT22;19182;41.820;12.808;2023-11-22T07:02:20;9.10;99.90
32839;DHT22;19182;41.820;12.808;2023-11-22T07:04:46;9.10;99.90
32839;DHT22;19182;41.820;12.808;2023-11-22T07:07:12;9.10;99.90
32839;DHT22;19182;41.820;12.808;2023-11-22T07:09:41;9.10;99.90
32839;DHT22;19182;41.820;12.808;2023-11-22T07:12:08;9.20;99.90
32839;DHT22;19182;41.820;12.808;2023-11-22T07:14:33;9.20;99.90
32839;DHT22;19182;41.820;12.808;2023-11-22T07:17:00;9.30;99.90
32839;DHT22;19182;41.820;12.808;2023-11-22T07:19:28;9.50;99.90
32839;DHT22;19182;41.820;12.808;2023-11-22T07:21:54;9.80;99.90
32839;DHT22;19182;41.820;12.808;2023-11-22T07:24:20;11.20;99.90
32839;DHT22;19182;41.820;12.808;2023-11-22T07:26:49;12.80;99.90
32839;DHT22;19182;41.820;12.808;2023-11-22T07:29:15;14.60;99.90
32839;DHT22;19182;41.820;12.808;2023-11-22T07:31:40;16.30;99.90
32839;DHT22;19182;41.820;12.808;2023-11-22T07:34:09;17.60;99.90
32839;DHT22;19182;41.820;12.808;2023-11-22T07:36:36;19.00;99.90
32839;DHT22;19182;41.820;12.808;2023-11-22T07:39:04;20.50;99.90
32839;DHT22;19182;41.820;12.808;2023-11-22T07:41:31;21.00;99.90
32839;DHT22;19182;41.820;12.808;2023-11-22T07:43:57;20.90;99.90
32839;DHT22;19182;41.820;12.808;2023-11-22T07:46:22;20.40;99.90
32839;DHT22;19182;41.820;12.808;2023-11-22T07:48:48;22.90;99.90
32839;DHT22;19182;41.820;12.808;2023-11-22T07:51:15;23.20;99.90
32839;DHT22;19182;41.820;12.808;2023-11-22T07:53:43;21.50;99.90
32839;DHT22;19182;41.820;12.808;2023-11-22T07:56:09;23.10;99.90
32839;DHT22;19182;41.820;12.808;2023-11-22T07:58:37;23.30;99.90
32839;DHT22;19182;41.820;12.808;2023-11-22T08:01:03;24.00;99.90
32839;DHT22;19182;41.820;12.808;2023-11-22T08:03:34;24.50;99.90
32839;DHT22;19182;41.820;12.808;2023-11-22T08:06:00;24.50;99.90
32839;DHT22;19182;41.820;12.808;2023-11-22T08:08:28;25.30;99.90
32839;DHT22;19182;41.820;12.808;2023-11-22T08:10:55;24.80;99.90
32839;DHT22;19182;41.820;12.808;2023-11-22T08:13:25;24.40;99.90
32839;DHT22;19182;41.820;12.808;2023-11-22T08:15:50;26.10;99.90
32839;DHT22;19182;41.820;12.808;2023-11-22T08:18:18;25.40;99.90
32839;DHT22;19182;41.820;12.808;2023-11-22T08:20:44;25.40;99.90
32839;DHT22;19182;41.820;12.808;2023-11-22T08:23:12;26.00;99.90
32839;DHT22;19182;41.820;12.808;2023-11-22T08:25:40;26.10;99.90
32839;DHT22;19182;41.820;12.808;2023-11-22T08:28:06;26.80;99.90
32839;DHT22;19182;41.820;12.808;2023-11-22T08:30:35;26.10;99.90
32839;DHT22;19182;41.820;12.808;2023-11-22T08:33:01;25.90;99.90
32839;DHT22;19182;41.820;12.808;2023-11-22T08:35:27;26.80;99.90
32839;DHT22;19182;41.820;12.808;2023-11-22T08:37:54;28.10;99.90
32839;DHT22;19182;41.820;12.808;2023-11-22T08:40:22;28.80;98.40
32839;DHT22;19182;41.820;12.808;2023-11-22T08:42:48;29.00;96.70
32839;DHT22;19182;41.820;12.808;2023-11-22T08:45:14;28.80;95.70
32839;DHT22;19182;41.820;12.808;2023-11-22T08:47:39;27.10;96.50
32839;DHT22;19182;41.820;12.808;2023-11-22T08:50:06;24.90;99.90
32839;DHT22;19182;41.820;12.808;2023-11-22T08:52:36;23.50;99.90
32839;DHT22;19182;41.820;12.808;2023-11-22T08:55:04;23.20;99.90
32839;DHT22;19182;41.820;12.808;2023-11-22T08:57:35;23.30;99.90
32839;DHT22;19182;41.820;12.808;2023-11-22T09:00:03;25.60;99.90
32839;DHT22;19182;41.820;12.808;2023-11-22T09:02:32;27.90;98.60
32839;DHT22;19182;41.820;12.808;2023-11-22T09:04:58;28.50;97.10
32839;DHT22;19182;41.820;12.808;2023-11-22T09:07:24;28.30;95.40
32839;DHT22;19182;41.820;12.808;2023-11-22T09:09:54;27.90;96.00
32839;DHT22;19182;41.820;12.808;2023-11-22T09:12:19;27.80;95.20
32839;DHT22;19182;41.820;12.808;2023-11-22T09:14:46;26.80;95.90
32839;DHT22;19182;41.820;12.808;2023-11-22T09:17:11;26.00;97.10
32839;DHT22;19182;41.820;12.808;2023-11-22T09:19:39;24.90;99.00
32839;DHT22;19182;41.820;12.808;2023-11-22T09:22:05;22.90;99.90
32839;DHT22;19182;41.820;12.808;2023-11-22T09:24:31;21.90;99.90
32839;DHT22;19182;41.820;12.808;2023-11-22T09:26:57;21.30;99.90
32839;DHT22;19182;41.820;12.808;2023-11-22T09:29:24;22.10;99.90
32839;DHT22;19182;41.820;12.808;2023-11-22T09:31:49;23.60;99.90
32839;DHT22;19182;41.820;12.808;2023-11-22T09:34:17;24.00;99.90
32839;DHT22;19182;41.820;12.808;2023-11-22T09:36:43;25.30;99.90
32839;DHT22;19182;41.820;12.808;2023-11-22T09:39:12;23.50;99.90
32839;DHT22;19182;41.820;12.808;2023-11-22T09:41:38;23.60;99.90
32839;DHT22;19182;41.820;12.808;2023-11-22T09:44:04;25.00;99.90
32839;DHT22;19182;41.820;12.808;2023-11-22T09:46:30;24.20;99.90
32839;DHT22;19182;41.820;12.808;2023-11-22T09:49:00;23.00;99.90
32839;DHT22;19182;41.820;12.808;2023-11-22T09:51:28;22.60;99.90
32839;DHT22;19182;41.820;12.808;2023-11-22T09:53:58;22.00;99.90
32839;DHT22;19182;41.820;12.808;2023-11-22T09:56:25;21.30;99.90
32839;DHT22;19182;41.820;12.808;2023-11-22T09:58:52;20.50;99.90
32839;DHT22;19182;41.820;12.808;2023-11-22T10:01:22;19.70;99.90
32839;DHT22;19182;41.820;12.808;2023-11-22T10:03:48;18.50;99.90
32839;DHT22;19182;41.820;12.808;2023-11-22T10:06:14;18.40;99.90
32839;DHT22;19182;41.820;12.808;2023-11-22T10:08:43;18.30;99.90
32839;DHT22;19182;41.820;12.808;2023-11-22T10:11:15;18.10;99.90
32839;DHT22;19182;41.820;12.808;2023-11-22T10:13:43;18.10;99.90
32839;DHT22;19182;41.820;12.808;2023-11-22T10:16:11;18.80;99.90
32839;DHT22;19182;41.820;12.808;2023-11-22T10:18:44;20.70;99.90
32839;DHT22;19182;41.820;12.808;2023-11-22T10:21:23;26.10;99.90
32839;DHT22;19182;41.820;12.808;2023-11-22T10:23:57;29.70;98.60
32839;DHT22;19182;41.820;12.808;2023-11-22T10:26:23;31.60;93.50
32839;DHT22;19182;41.820;12.808;2023-11-22T10:28:52;32.40;91.80
32839;DHT22;19182;41.820;12.808;2023-11-22T10:31:18;32.90;86.50
32839;DHT22;19182;41.820;12.808;2023-11-22T10:33:44;32.80;84.80
32839;DHT22;19182;41.820;12.808;2023-11-22T10:36:09;33.20;83.30
32839;DHT22;19182;41.820;12.808;2023-11-22T10:38:36;33.40;77.80
32839;DHT22;19182;41.820;12.808;2023-11-22T10:41:05;32.20;76.50
32839;DHT22;19182;41.820;12.808;2023-11-22T10:43:33;33.40;75.90
32839;DHT22;19182;41.820;12.808;2023-11-22T10:46:03;34.10;75.10
32839;DHT22;19182;41.820;12.808;2023-11-22T10:48:31;36.00;71.00
32839;DHT22;19182;41.820;12.808;2023-11-22T10:51:01;35.60;66.50
32839;DHT22;19182;41.820;12.808;2023-11-22T10:53:32;34.50;67.80
32839;DHT22;19182;41.820;12.808;2023-11-22T10:58:39;35.00;64.00
32839;DHT22;19182;41.820;12.808;2023-11-22T11:01:07;37.40;62.80
32839;DHT22;19182;41.820;12.808;2023-11-22T11:03:33;37.40;58.60
32839;DHT22;19182;41.820;12.808;2023-11-22T11:06:04;36.20;56.30
32839;DHT22;19182;41.820;12.808;2023-11-22T11:08:30;37.80;58.10
32839;DHT22;19182;41.820;12.808;2023-11-22T11:10:59;36.30;58.40
32839;DHT22;19182;41.820;12.808;2023-11-22T11:13:28;36.20;57.70
32839;DHT22;19182;41.820;12.808;2023-11-22T11:15:55;38.00;55.50
32839;DHT22;19182;41.820;12.808;2023-11-22T11:18:21;37.40;56.00
32839;DHT22;19182;41.820;12.808;2023-11-22T11:20:51;37.30;54.70
32839;DHT22;19182;41.820;12.808;2023-11-22T11:23:20;37.00;55.90
32839;DHT22;19182;41.820;12.808;2023-11-22T11:25:52;35.80;56.40
32839;DHT22;19182;41.820;12.808;2023-11-22T11:28:19;32.60;60.00
32839;DHT22;19182;41.820;12.808;2023-11-22T11:33:12;27.20;72.00
32839;DHT22;19182;41.820;12.808;2023-11-22T11:35:43;26.20;78.60
32839;DHT22;19182;41.820;12.808;2023-11-22T11:38:12;26.90;77.70
32839;DHT22;19182;41.820;12.808;2023-11-22T11:40:40;28.00;76.00
32839;DHT22;19182;41.820;12.808;2023-11-22T11:43:05;26.70;77.70
32839;DHT22;19182;41.820;12.808;2023-11-22T11:45:37;26.40;80.70
32839;DHT22;19182;41.820;12.808;2023-11-22T11:48:04;26.70;82.40
32839;DHT22;19182;41.820;12.808;2023-11-22T11:50:30;27.00;83.50
32839;DHT22;19182;41.820;12.808;2023-11-22T11:52:56;26.60;82.40
32839;DHT22;19182;41.820;12.808;2023-11-22T11:55:22;25.40;88.60
32839;DHT22;19182;41.820;12.808;2023-11-22T11:57:48;25.50;89.40
32839;DHT22;19182;41.820;12.808;2023-11-22T12:00:14;25.50;89.40
32839;DHT22;19182;41.820;12.808;2023-11-22T12:02:41;25.00;91.50
32839;DHT22;19182;41.820;12.808;2023-11-22T12:05:07;24.90;90.50
32839;DHT22;19182;41.820;12.808;2023-11-22T12:07:38;24.60;91.00
32839;DHT22;19182;41.820;12.808;2023-11-22T12:10:04;24.30;90.80
32839;DHT22;19182;41.820;12.808;2023-11-22T12:12:34;23.30;93.40
32839;DHT22;19182;41.820;12.808;2023-11-22T12:14:59;22.60;96.20
32839;DHT22;19182;41.820;12.808;2023-11-22T12:17:26;22.50;97.90
32839;DHT22;19182;41.820;12.808;2023-11-22T12:20:10;22.50;96.80
32839;DHT22;19182;41.820;12.808;2023-11-22T12:22:37;22.70;97.50
32839;DHT22;19182;41.820;12.808;2023-11-22T12:25:03;22.40;98.60
32839;DHT22;19182;41.820;12.808;2023-11-22T12:27:30;22.30;98.60
32839;DHT22;19182;41.820;12.808;2023-11-22T12:29:57;21.80;99.90
32839;DHT22;19182;41.820;12.808;2023-11-22T12:32:24;21.60;99.90
32839;DHT22;19182;41.820;12.808;2023-11-22T12:34:52;20.70;99.90
32839;DHT22;19182;41.820;12.808;2023-11-22T12:37:20;20.40;99.90
32839;DHT22;19182;41.820;12.808;2023-11-22T12:39:47;20.30;99.90
32839;DHT22;19182;41.820;12.808;2023-11-22T12:42:14;20.20;99.90
32839;DHT22;19182;41.820;12.808;2023-11-22T12:44:50;20.20;99.90
32839;DHT22;19182;41.820;12.808;2023-11-22T12:47:32;20.50;99.90
32839;DHT22;19182;41.820;12.808;2023-11-22T12:50:01;20.60;99.90
32839;DHT22;19182;41.820;12.808;2023-11-22T12:52:29;20.60;99.90
32839;DHT22;19182;41.820;12.808;2023-11-22T12:54:58;20.60;99.90
32839;DHT22;19182;41.820;12.808;2023-11-22T12:57:24;20.60;99.90
32839;DHT22;19182;41.820;12.808;2023-11-22T12:59:50;20.30;99.90
32839;DHT22;19182;41.820;12.808;2023-11-22T13:02:15;20.20;99.90
32839;DHT22;19182;41.820;12.808;2023-11-22T13:04:42;20.20;99.90
32839;DHT22;19182;41.820;12.808;2023-11-22T13:07:08;20.20;99.90
32839;DHT22;19182;41.820;12.808;2023-11-22T13:09:33;20.20;99.90
32839;DHT22;19182;41.820;12.808;2023-11-22T13:12:01;20.10;99.90
32839;DHT22;19182;41.820;12.808;2023-11-22T13:14:26;21.90;99.90
32839;DHT22;19182;41.820;12.808;2023-11-22T13:16:57;19.60;99.90
32839;DHT22;19182;41.820;12.808;2023-11-22T13:19:22;19.30;99.90
32839;DHT22;19182;41.820;12.808;2023-11-22T13:21:50;19.10;99.90
32839;DHT22;19182;41.820;12.808;2023-11-22T13:24:15;18.80;99.90
32839;DHT22;19182;41.820;12.808;2023-11-22T13:26:43;17.70;99.90
32839;DHT22;19182;41.820;12.808;2023-11-22T13:29:09;18.40;99.90
32839;DHT22;19182;41.820;12.808;2023-11-22T13:31:38;18.30;99.90
32839;DHT22;19182;41.820;12.808;2023-11-22T13:34:05;18.30;99.90
32839;DHT22;19182;41.820;12.808;2023-11-22T13:36:30;18.20;99.90
32839;DHT22;19182;41.820;12.808;2023-11-22T13:39:00;18.30;99.90
32839;DHT22;19182;41.820;12.808;2023-11-22T13:41:26;18.30;99.90
32839;DHT22;19182;41.820;12.808;2023-11-22T13:43:51;18.20;99.90
32839;DHT22;19182;41.820;12.808;2023-11-22T13:46:18;18.10;99.90
32839;DHT22;19182;41.820;12.808;2023-11-22T13:48:44;18.20;99.90
32839;DHT22;19182;41.820;12.808;2023-11-22T13:51:09;18.10;99.90
32839;DHT22;19182;41.820;12.808;2023-11-22T13:53:36;18.10;99.90
32839;DHT22;19182;41.820;12.808;2023-11-22T13:56:04;18.00;99.90
32839;DHT22;19182;41.820;12.808;2023-11-22T13:58:34;18.00;99.90
32839;DHT22;19182;41.820;12.808;2023-11-22T14:01:00;18.00;99.90
32839;DHT22;19182;41.820;12.808;2023-11-22T14:03:26;17.90;99.90
32839;DHT22;19182;41.820;12.808;2023-11-22T14:05:51;17.80;99.90
32839;DHT22;19182;41.820;12.808;2023-11-22T14:08:17;17.70;99.90
32839;DHT22;19182;41.820;12.808;2023-11-22T14:10:43;17.70;99.90
32839;DHT22;19182;41.820;12.808;2023-11-22T14:13:10;17.50;99.90
32839;DHT22;19182;41.820;12.808;2023-11-22T14:15:37;17.50;99.90
32839;DHT22;19182;41.820;12.808;2023-11-22T14:18:03;17.40;99.90
32839;DHT22;19182;41.820;12.808;2023-11-22T14:20:30;17.30;99.90
32839;DHT22;19182;41.820;12.808;2023-11-22T14:22:55;17.20;99.90
32839;DHT22;19182;41.820;12.808;2023-11-22T14:25:22;17.10;99.90
32839;DHT22;19182;41.820;12.808;2023-11-22T14:27:48;17.00;99.90
32839;DHT22;19182;41.820;12.808;2023-11-22T14:30:20;17.00;99.90
32839;DHT22;19182;41.820;12.808;2023-11-22T14:32:46;16.60;99.90
32839;DHT22;19182;41.820;12.808;2023-11-22T14:35:12;16.60;99.90
32839;DHT22;19182;41.820;12.808;2023-11-22T14:37:39;16.40;99.90
32839;DHT22;19182;41.820;12.808;2023-11-22T14:40:05;16.20;99.90
32839;DHT22;19182;41.820;12.808;2023-11-22T14:42:41;16.20;99.90
32839;DHT22;19182;41.820;12.808;2023-11-22T14:45:08;16.20;99.90
32839;DHT22;19182;41.820;12.808;2023-11-22T14:47:34;16.30;99.90
32839;DHT22;19182;41.820;12.808;2023-11-22T14:50:02;16.00;99.90
32839;DHT22;19182;41.820;12.808;2023-11-22T14:52:30;16.10;99.90
32839;DHT22;19182;41.820;12.808;2023-11-22T14:54:56;15.90;99.90
32839;DHT22;19182;41.820;12.808;2023-11-22T14:57:25;15.90;99.90
32839;DHT22;19182;41.820;12.808;2023-11-22T14:59:52;15.80;99.90
32839;DHT22;19182;41.820;12.808;2023-11-22T15:02:17;15.80;99.90
32839;DHT22;19182;41.820;12.808;2023-11-22T15:04:43;15.70;99.90
32839;DHT22;19182;41.820;12.808;2023-11-22T15:07:11;15.70;99.90
32839;DHT22;19182;41.820;12.808;2023-11-22T15:09:37;15.50;99.90
32839;DHT22;19182;41.820;12.808;2023-11-22T15:12:03;15.30;99.90
32839;DHT22;19182;41.820;12.808;2023-11-22T15:14:30;15.30;99.90
32839;DHT22;19182;41.820;12.808;2023-11-22T15:16:56;15.40;99.90
32839;DHT22;19182;41.820;12.808;2023-11-22T15:19:23;15.30;99.90